Time;durP1;ratioP1;P1;durP2;ratioP2;P2;SDS_P1;SDS_P2;PMS_P1;PMS_P2;Temp;Humidity;BMP_temperature;BMP_pressure;BME280_temperature;BME280_humidity;BME280_pressure;Samples;Min_cycle;Max_cycle;Signal;HPM_P1;HPM_P2
2022/08/23 00:01:24;;;;;;;8.37;4.30;;;19.80;66.10;;;;;;5038520;28;20430;-72
2022/08/23 00:03:50;;;;;;;8.00;4.43;;;19.80;66.30;;;;;;5040657;28;20200;-71
2022/08/23 00:06:17;;;;;;;5.60;4.80;;;19.70;66.30;;;;;;5030849;28;20446;-71
2022/08/23 00:08:47;;;;;;;7.13;5.03;;;19.60;66.90;;;;;;5036688;28;20466;-71
2022/08/23 00:11:40;;;;;;;7.13;4.60;;;19.60;67.50;;;;;;5034754;28;20433;-70
2022/08/23 00:14:09;;;;;;;6.77;4.70;;;19.50;67.70;;;;;;5036837;28;20420;-71
2022/08/23 00:16:36;;;;;;;5.73;4.50;;;19.50;68.20;;;;;;5044963;28;20513;-70
2022/08/23 00:19:04;;;;;;;5.63;4.60;;;19.50;68.00;;;;;;5042080;28;20484;-72
2022/08/23 00:21:30;;;;;;;6.57;4.30;;;19.40;68.50;;;;;;5044526;28;20952;-70
2022/08/23 00:23:56;;;;;;;6.53;4.40;;;19.30;68.60;;;;;;5041331;28;20423;-71
2022/08/23 00:26:22;;;;;;;5.97;4.40;;;19.30;68.90;;;;;;5043160;28;20192;-71
2022/08/23 00:28:59;;;;;;;5.33;4.30;;;19.30;69.10;;;;;;5039383;28;20468;-71
2022/08/23 00:31:25;;;;;;;5.80;4.60;;;19.30;69.10;;;;;;5046171;28;20832;-70
2022/08/23 00:33:51;;;;;;;5.47;4.47;;;19.30;69.10;;;;;;5042033;28;20429;-71
2022/08/23 00:36:16;;;;;;;6.00;4.30;;;19.30;69.10;;;;;;5045689;28;20230;-71
2022/08/23 00:38:42;;;;;;;6.30;4.53;;;19.30;68.90;;;;;;5035940;28;20208;-71
2022/08/23 00:41:07;;;;;;;5.40;4.20;;;19.20;68.80;;;;;;5040576;28;20192;-72
2022/08/23 00:49:36;;;;;;;5.20;3.73;;;18.90;69.40;;;;;;5039969;28;20492;-69
2022/08/23 00:52:23;;;;;;;5.53;4.40;;;18.80;69.80;;;;;;5046235;28;20501;-71
2022/08/23 00:54:51;;;;;;;6.97;4.63;;;18.90;69.80;;;;;;5047726;28;20421;-71
2022/08/23 00:57:18;;;;;;;5.80;4.30;;;18.90;69.50;;;;;;5038441;28;20461;-70
2022/08/23 00:59:44;;;;;;;6.77;4.10;;;18.80;69.40;;;;;;5034565;28;20979;-71
2022/08/23 01:02:11;;;;;;;5.80;3.77;;;18.80;69.70;;;;;;5051412;28;20475;-71
2022/08/23 01:04:41;;;;;;;6.17;4.60;;;18.70;69.80;;;;;;5047685;28;20429;-72
2022/08/23 01:07:10;;;;;;;4.03;3.87;;;18.60;69.90;;;;;;5037776;28;20474;-70
2022/08/23 01:09:39;;;;;;;10.83;4.77;;;18.50;70.20;;;;;;5041675;28;20482;-71
2022/08/23 01:12:14;;;;;;;5.27;4.40;;;18.50;70.40;;;;;;5037196;28;20430;-71
2022/08/23 01:14:46;;;;;;;5.97;4.20;;;18.40;70.20;;;;;;5042986;28;20409;-70
2022/08/23 01:17:42;;;;;;;4.77;3.97;;;18.50;70.20;;;;;;5048737;28;20417;-70
2022/08/23 01:20:16;;;;;;;6.40;4.40;;;18.40;70.40;;;;;;5041434;28;20465;-71
2022/08/23 01:22:51;;;;;;;5.10;4.20;;;18.40;70.80;;;;;;5041095;28;20838;-70
2022/08/23 01:25:20;;;;;;;7.03;4.60;;;18.40;71.00;;;;;;5047573;28;20426;-71
2022/08/23 01:27:46;;;;;;;6.60;4.57;;;18.40;71.10;;;;;;5048422;28;20512;-71
2022/08/23 01:30:14;;;;;;;6.07;3.67;;;18.40;71.10;;;;;;5040912;28;20549;-71
2022/08/23 01:32:44;;;;;;;7.20;5.13;;;18.40;71.10;;;;;;5047595;28;20503;-72
2022/08/23 01:35:10;;;;;;;6.43;3.97;;;18.50;70.80;;;;;;5051086;28;20407;-70
2022/08/23 01:37:36;;;;;;;5.70;3.80;;;18.50;70.70;;;;;;5040922;28;20493;-72
2022/08/23 01:40:02;;;;;;;7.33;4.50;;;18.50;70.80;;;;;;5049129;28;20457;-72
2022/08/23 01:42:28;;;;;;;5.17;4.10;;;18.50;70.50;;;;;;5049428;28;20424;-71
2022/08/23 01:44:53;;;;;;;5.23;3.80;;;18.50;70.50;;;;;;5049112;28;20792;-71
2022/08/23 01:47:19;;;;;;;5.83;4.50;;;18.50;70.50;;;;;;5042887;28;20180;-72
2022/08/23 01:49:44;;;;;;;8.53;4.57;;;18.40;70.70;;;;;;5037316;28;20572;-71
2022/08/23 01:52:10;;;;;;;5.37;3.77;;;18.40;71.00;;;;;;5036416;28;20192;-71
2022/08/23 01:54:36;;;;;;;5.77;4.10;;;18.40;71.00;;;;;;5040452;28;20180;-70
2022/08/23 01:57:04;;;;;;;8.83;4.57;;;18.40;70.80;;;;;;5050058;28;20186;-71
2022/08/23 01:59:29;;;;;;;5.80;4.17;;;18.30;71.30;;;;;;5048537;28;20261;-71
2022/08/23 02:01:55;;;;;;;4.70;4.10;;;18.30;71.40;;;;;;5045514;28;20507;-71
2022/08/23 02:04:21;;;;;;;9.73;4.87;;;18.30;71.40;;;;;;5050001;28;20184;-72
2022/08/23 02:06:47;;;;;;;4.43;4.13;;;18.30;71.60;;;;;;5048423;28;20549;-71
2022/08/23 02:09:13;;;;;;;6.37;4.40;;;18.30;71.70;;;;;;5031717;28;20482;-71
2022/08/23 02:11:41;;;;;;;6.30;4.40;;;18.30;71.70;;;;;;5040851;28;20201;-70
2022/08/23 02:14:13;;;;;;;5.60;4.00;;;18.30;71.40;;;;;;5043155;28;20427;-71
2022/08/23 02:16:43;;;;;;;5.80;3.90;;;18.30;71.70;;;;;;5040964;28;20422;-71
2022/08/23 02:19:11;;;;;;;6.83;3.97;;;18.20;71.80;;;;;;5040870;28;20495;-71
2022/08/23 02:21:39;;;;;;;5.10;3.80;;;18.20;72.00;;;;;;5050785;28;20907;-72
2022/08/23 02:24:08;;;;;;;6.23;4.00;;;18.10;72.10;;;;;;5044869;28;20428;-71
2022/08/23 02:26:35;;;;;;;5.77;4.53;;;18.10;72.30;;;;;;5044087;28;20524;-71
2022/08/23 02:29:02;;;;;;;6.53;4.67;;;18.00;72.40;;;;;;5043085;28;20477;-71
2022/08/23 02:31:27;;;;;;;5.70;4.20;;;18.00;72.60;;;;;;5046570;28;20426;-71
2022/08/23 02:33:53;;;;;;;6.63;3.87;;;17.90;72.90;;;;;;5043471;28;20815;-71
2022/08/23 02:36:19;;;;;;;6.27;4.10;;;17.90;73.00;;;;;;5043746;28;20360;-69
2022/08/23 02:38:45;;;;;;;6.40;5.00;;;17.90;73.00;;;;;;5043368;28;20443;-70
2022/08/23 02:41:11;;;;;;;5.90;4.50;;;17.90;73.00;;;;;;5036958;28;20421;-71
2022/08/23 02:43:36;;;;;;;5.30;4.50;;;17.90;72.90;;;;;;5042501;28;20188;-71
2022/08/23 02:46:05;;;;;;;6.23;4.47;;;17.90;73.00;;;;;;5048059;28;20211;-70
2022/08/23 02:48:35;;;;;;;9.43;5.27;;;17.90;73.50;;;;;;5049104;28;20246;-70
2022/08/23 02:51:03;;;;;;;5.33;4.93;;;17.80;73.60;;;;;;5051695;28;20784;-70
2022/08/23 02:53:29;;;;;;;8.20;5.17;;;17.80;73.90;;;;;;5049298;28;20444;-70
2022/08/23 02:55:55;;;;;;;8.57;5.40;;;17.90;73.60;;;;;;5048801;28;20532;-70
2022/08/23 02:58:22;;;;;;;6.83;4.93;;;17.90;73.60;;;;;;5044145;28;20423;-71
2022/08/23 03:00:49;;;;;;;6.10;5.07;;;17.90;73.50;;;;;;5038694;28;20980;-71
2022/08/23 03:03:15;;;;;;;6.50;4.90;;;17.90;73.50;;;;;;5038388;28;20792;-71
2022/08/23 03:05:42;;;;;;;7.30;5.00;;;17.90;73.30;;;;;;5041865;28;20422;-71
2022/08/23 03:08:07;;;;;;;7.20;5.20;;;17.80;73.30;;;;;;5039111;28;20479;-71
2022/08/23 03:10:33;;;;;;;7.03;5.13;;;17.70;73.60;;;;;;5037266;28;20468;-70
2022/08/23 03:12:59;;;;;;;8.47;4.97;;;17.70;73.60;;;;;;5040330;28;20194;-71
2022/08/23 03:15:25;;;;;;;6.90;5.17;;;17.70;73.70;;;;;;5040866;28;20185;-71
2022/08/23 03:17:50;;;;;;;9.20;5.70;;;17.70;73.70;;;;;;5042446;28;20517;-71
2022/08/23 03:20:16;;;;;;;8.83;5.33;;;17.70;73.50;;;;;;5040797;28;20215;-71
2022/08/23 03:22:42;;;;;;;7.97;4.80;;;17.60;74.00;;;;;;5043149;28;20555;-71
2022/08/23 03:25:07;;;;;;;8.23;4.90;;;17.60;74.20;;;;;;5046297;28;20205;-71
2022/08/23 03:27:34;;;;;;;6.17;5.00;;;17.60;74.30;;;;;;5032711;28;20197;-70
2022/08/23 03:29:59;;;;;;;8.50;3.77;;;17.70;74.00;;;;;;5041642;28;20221;-71
2022/08/23 03:32:26;;;;;;;6.47;4.20;;;17.70;73.90;;;;;;5040704;28;20566;-71
2022/08/23 03:34:52;;;;;;;4.93;4.37;;;17.70;73.70;;;;;;5047885;28;20192;-70
2022/08/23 03:37:18;;;;;;;5.40;4.47;;;17.60;74.00;;;;;;5043618;28;20956;-70
2022/08/23 03:39:43;;;;;;;4.97;4.53;;;17.60;74.00;;;;;;5039873;28;20471;-72
2022/08/23 03:42:09;;;;;;;7.37;5.03;;;17.60;74.20;;;;;;5043577;28;20211;-71
2022/08/23 03:44:34;;;;;;;9.60;4.77;;;17.60;74.50;;;;;;5039473;28;20541;-70
2022/08/23 03:47:01;;;;;;;6.93;4.20;;;17.50;74.50;;;;;;5042500;28;20618;-71
2022/08/23 03:49:26;;;;;;;5.60;4.77;;;17.50;74.60;;;;;;5043246;28;20225;-72
2022/08/23 03:51:52;;;;;;;4.70;4.10;;;17.50;74.60;;;;;;5049647;28;20780;-72
2022/08/23 03:54:18;;;;;;;6.63;4.40;;;17.40;74.90;;;;;;5048623;28;20186;-73
2022/08/23 03:56:54;;;;;;;7.17;4.73;;;17.40;75.20;;;;;;5048538;28;20211;-71
2022/08/23 03:59:20;;;;;;;4.37;4.13;;;17.30;75.20;;;;;;5040824;28;20552;-71
2022/08/23 04:01:46;;;;;;;5.40;4.20;;;17.40;75.20;;;;;;5046797;28;20951;-72
2022/08/23 04:04:12;;;;;;;8.63;4.60;;;17.30;75.10;;;;;;5049749;28;20432;-72
2022/08/23 04:06:37;;;;;;;5.83;4.20;;;17.30;75.20;;;;;;5046964;28;20429;-71
2022/08/23 04:09:03;;;;;;;7.13;4.40;;;17.30;75.20;;;;;;5045167;28;21175;-71
2022/08/23 04:11:28;;;;;;;6.33;5.10;;;17.20;75.20;;;;;;5048352;28;20181;-72
2022/08/23 04:13:54;;;;;;;5.97;4.10;;;17.20;75.10;;;;;;5043151;28;20201;-70
2022/08/23 04:16:20;;;;;;;4.63;4.13;;;17.10;75.70;;;;;;5049630;28;20189;-70
2022/08/23 04:18:47;;;;;;;7.10;4.70;;;17.00;75.80;;;;;;5042769;28;20452;-71
2022/08/23 04:21:17;;;;;;;8.00;4.93;;;17.00;75.90;;;;;;5043603;28;20438;-70
2022/08/23 04:23:43;;;;;;;7.00;5.10;;;17.00;76.10;;;;;;5043170;28;20430;-71
2022/08/23 04:26:09;;;;;;;5.60;4.20;;;17.00;76.10;;;;;;5049567;28;20424;-71
2022/08/23 04:28:36;;;;;;;5.57;4.30;;;17.10;75.80;;;;;;5046385;28;20835;-71
2022/08/23 04:31:03;;;;;;;7.07;5.13;;;17.10;75.90;;;;;;5040601;28;20539;-71
2022/08/23 04:33:33;;;;;;;6.87;4.60;;;17.10;75.90;;;;;;5052348;28;20424;-71
2022/08/23 04:35:59;;;;;;;8.17;5.03;;;17.10;75.90;;;;;;5047845;28;20440;-71
2022/08/23 04:38:25;;;;;;;8.37;4.97;;;17.10;75.80;;;;;;5046028;28;20512;-71
2022/08/23 04:43:36;;;;;;;6.60;4.50;;;17.00;75.90;;;;;;5049299;28;20897;-73
2022/08/23 04:46:01;;;;;;;10.13;4.77;;;17.10;75.70;;;;;;5062273;28;20431;-70
2022/08/23 04:48:27;;;;;;;8.10;4.80;;;17.10;75.40;;;;;;5065329;28;20667;-71
2022/08/23 04:50:53;;;;;;;6.20;4.30;;;17.10;75.70;;;;;;5044606;28;20212;-70
2022/08/23 04:53:19;;;;;;;6.57;4.30;;;17.10;75.40;;;;;;5049239;28;20190;-71
2022/08/23 04:55:45;;;;;;;5.47;4.37;;;17.20;75.20;;;;;;5054313;28;20183;-70
2022/08/23 04:58:10;;;;;;;7.30;4.40;;;17.20;75.10;;;;;;5048506;28;20523;-70
2022/08/23 05:00:36;;;;;;;6.87;4.70;;;17.10;75.10;;;;;;5052583;28;20216;-71
2022/08/23 05:03:02;;;;;;;7.80;4.97;;;17.20;75.10;;;;;;5069161;28;20196;-71
2022/08/23 05:05:27;;;;;;;4.77;4.10;;;17.20;74.80;;;;;;5059809;28;20217;-70
2022/08/23 05:07:54;;;;;;;6.20;4.80;;;17.20;74.60;;;;;;5043129;28;20219;-69
2022/08/23 05:10:19;;;;;;;9.90;3.90;;;17.20;74.30;;;;;;5034765;28;20614;-69
2022/08/23 05:12:46;;;;;;;7.70;5.07;;;17.30;74.50;;;;;;5046634;28;20437;-70
2022/08/23 05:15:12;;;;;;;8.33;4.57;;;17.30;74.60;;;;;;5041385;28;20186;-71
2022/08/23 05:17:38;;;;;;;9.83;5.00;;;17.30;74.50;;;;;;5044755;28;20510;-71
2022/08/23 05:20:09;;;;;;;9.90;6.17;;;17.40;74.30;;;;;;5037300;28;20634;-71
2022/08/23 05:22:36;;;;;;;7.20;5.40;;;17.40;74.60;;;;;;5044319;28;20862;-72
2022/08/23 05:25:02;;;;;;;7.97;5.20;;;17.40;74.60;;;;;;5037774;28;20473;-71
2022/08/23 05:27:27;;;;;;;6.93;5.00;;;17.40;74.50;;;;;;5039124;28;21009;-71
2022/08/23 05:29:53;;;;;;;7.50;5.50;;;17.40;74.50;;;;;;5034175;28;20711;-71
2022/08/23 05:32:20;;;;;;;7.57;5.00;;;17.40;74.20;;;;;;5042941;28;20203;-71
2022/08/23 05:34:48;;;;;;;12.07;5.17;;;17.50;74.20;;;;;;5040858;28;20178;-73
2022/08/23 05:37:15;;;;;;;9.13;5.20;;;17.50;74.20;;;;;;5041070;28;20903;-72
2022/08/23 05:39:41;;;;;;;7.80;5.33;;;17.50;74.30;;;;;;5036693;28;20507;-71
2022/08/23 05:42:10;;;;;;;6.83;5.20;;;17.50;74.00;;;;;;5040706;28;20817;-71
2022/08/23 05:44:36;;;;;;;7.33;4.77;;;17.60;73.70;;;;;;5037702;28;20842;-70
2022/08/23 05:47:03;;;;;;;7.40;4.60;;;17.60;74.20;;;;;;5039974;28;20416;-70
2022/08/23 05:49:29;;;;;;;6.50;4.63;;;17.70;74.20;;;;;;5041814;28;20472;-71
2022/08/23 05:51:55;;;;;;;6.80;5.17;;;17.70;73.90;;;;;;5038012;28;20999;-70
2022/08/23 05:54:21;;;;;;;7.87;5.03;;;17.80;73.90;;;;;;5038592;28;20252;-72
2022/08/23 05:56:47;;;;;;;8.40;5.07;;;17.80;73.70;;;;;;5040560;28;20810;-72
2022/08/23 05:59:16;;;;;;;10.13;6.13;;;17.90;73.90;;;;;;5030860;28;20210;-72
2022/08/23 06:01:42;;;;;;;8.70;5.97;;;17.90;73.90;;;;;;5044839;28;20586;-73
2022/08/23 06:04:11;;;;;;;8.93;5.40;;;17.90;74.00;;;;;;5041311;28;20570;-71
2022/08/23 06:06:37;;;;;;;9.87;5.07;;;17.90;74.00;;;;;;5038605;28;20427;-70
2022/08/23 06:09:04;;;;;;;6.40;4.90;;;18.00;73.90;;;;;;5042577;28;20483;-71
2022/08/23 06:11:31;;;;;;;10.00;5.67;;;18.10;73.30;;;;;;5038035;28;20502;-71
2022/08/23 06:14:00;;;;;;;7.67;5.43;;;18.20;72.30;;;;;;5043540;28;20495;-72
2022/08/23 06:16:30;;;;;;;9.47;5.37;;;18.40;71.60;;;;;;5035887;28;20429;-71
2022/08/23 06:18:56;;;;;;;7.40;4.67;;;18.40;71.70;;;;;;5039799;28;20462;-70
2022/08/23 06:21:23;;;;;;;6.23;5.00;;;18.50;71.60;;;;;;5036839;28;20460;-71
2022/08/23 06:23:50;;;;;;;10.17;5.70;;;18.50;71.60;;;;;;5040898;28;20527;-70
2022/08/23 06:26:21;;;;;;;6.17;4.93;;;18.60;71.30;;;;;;5037412;28;20984;-71
2022/08/23 06:28:49;;;;;;;7.77;5.93;;;18.60;71.10;;;;;;5038666;28;21002;-71
2022/08/23 06:31:43;;;;;;;6.60;5.23;;;18.70;71.10;;;;;;5042778;28;20415;-71
2022/08/23 06:34:01;;;;;;;10.03;5.43;;;18.70;70.80;;;;;;5046759;28;20965;-71
2022/08/23 06:36:26;;;;;;;11.20;5.77;;;18.80;70.70;;;;;;5049131;28;20432;-71
2022/08/23 06:38:53;;;;;;;12.90;6.27;;;18.90;70.10;;;;;;5035561;28;20211;-73
2022/08/23 06:41:19;;;;;;;8.03;4.70;;;19.00;69.80;;;;;;5038320;28;20242;-71
2022/08/23 06:43:45;;;;;;;11.73;6.07;;;19.00;69.70;;;;;;5035937;28;20424;-71
2022/08/23 06:46:17;;;;;;;7.60;5.80;;;19.20;69.40;;;;;;5037767;28;20429;-71
2022/08/23 06:48:44;;;;;;;10.90;6.47;;;19.20;69.40;;;;;;5033078;28;20212;-70
2022/08/23 06:51:19;;;;;;;11.00;5.90;;;19.20;69.50;;;;;;5036716;28;20423;-71
2022/08/23 06:53:45;;;;;;;11.03;6.70;;;19.30;69.80;;;;;;5038721;28;20425;-72
2022/08/23 06:56:10;;;;;;;13.40;7.20;;;19.30;70.50;;;;;;5038857;28;20430;-72
2022/08/23 06:58:36;;;;;;;11.67;7.67;;;19.30;70.80;;;;;;5034049;28;20650;-73
2022/08/23 07:01:31;;;;;;;11.17;6.47;;;19.30;70.80;;;;;;5043651;28;20598;-74
2022/08/23 07:03:58;;;;;;;12.90;7.27;;;19.40;71.00;;;;;;5046947;28;20203;-71
2022/08/23 07:06:26;;;;;;;10.43;6.10;;;19.50;70.40;;;;;;5046239;28;20419;-72
2022/08/23 07:08:52;;;;;;;10.30;6.13;;;19.70;70.40;;;;;;5044303;28;20617;-71
2022/08/23 07:11:19;;;;;;;9.67;6.17;;;19.80;70.10;;;;;;5042896;28;20428;-71
2022/08/23 07:13:45;;;;;;;11.90;6.47;;;19.80;69.90;;;;;;5045567;28;20427;-71
2022/08/23 07:16:11;;;;;;;11.63;6.60;;;19.90;69.90;;;;;;5030012;28;20464;-72
2022/08/23 07:18:37;;;;;;;10.13;6.20;;;20.00;69.70;;;;;;5044333;28;20447;-72
2022/08/23 07:21:04;;;;;;;22.67;7.07;;;20.00;69.50;;;;;;5021300;28;20649;-71
2022/08/23 07:23:32;;;;;;;12.43;6.83;;;20.10;69.50;;;;;;5047985;28;20461;-71
2022/08/23 07:26:03;;;;;;;10.90;6.50;;;20.20;69.40;;;;;;5044862;28;20432;-71
2022/08/23 07:28:29;;;;;;;8.33;6.30;;;20.30;68.90;;;;;;5046824;28;20467;-70
2022/08/23 07:31:09;;;;;;;8.60;6.53;;;20.40;68.90;;;;;;5042411;28;20463;-70
2022/08/23 07:33:36;;;;;;;7.60;5.90;;;20.50;68.90;;;;;;5050361;28;20520;-70
2022/08/23 07:36:03;;;;;;;11.70;6.47;;;20.60;68.80;;;;;;5030509;28;21000;-71
2022/08/23 07:38:28;;;;;;;17.37;6.20;;;20.70;68.50;;;;;;5047565;28;20431;-70
2022/08/23 07:40:54;;;;;;;15.87;7.73;;;20.80;68.50;;;;;;5044910;28;21100;-74
2022/08/23 07:43:20;;;;;;;9.23;6.07;;;20.90;68.00;;;;;;5054054;28;20786;-72
2022/08/23 07:45:47;;;;;;;10.03;6.47;;;21.00;67.70;;;;;;5067307;28;20205;-71
2022/08/23 07:48:13;;;;;;;10.37;6.60;;;21.10;67.90;;;;;;5072006;28;20212;-71
2022/08/23 07:50:39;;;;;;;10.93;6.67;;;21.20;67.20;;;;;;5046772;28;20522;-71
2022/08/23 07:53:06;;;;;;;13.83;6.50;;;21.40;66.90;;;;;;5038541;28;20187;-71
2022/08/23 07:55:32;;;;;;;15.70;6.70;;;21.50;66.10;;;;;;5043514;28;20421;-71
2022/08/23 07:57:58;;;;;;;9.30;6.70;;;21.60;66.00;;;;;;5046778;28;20434;-70
2022/08/23 08:00:24;;;;;;;10.13;6.40;;;21.70;65.60;;;;;;5045322;28;20593;-71
2022/08/23 08:02:50;;;;;;;11.00;6.83;;;21.70;64.80;;;;;;5057204;28;20436;-71
2022/08/23 08:05:16;;;;;;;11.33;6.40;;;21.80;65.30;;;;;;5054725;28;20433;-71
2022/08/23 08:07:42;;;;;;;8.87;6.60;;;21.80;64.80;;;;;;5040285;28;20215;-71
2022/08/23 08:10:08;;;;;;;10.93;6.70;;;21.90;64.40;;;;;;5038466;28;20593;-70
2022/08/23 08:12:34;;;;;;;16.23;6.20;;;22.00;64.40;;;;;;5043221;28;20425;-70
2022/08/23 08:15:00;;;;;;;7.93;5.50;;;22.10;63.50;;;;;;5040823;28;20437;-71
2022/08/23 08:17:26;;;;;;;10.03;6.13;;;22.20;62.90;;;;;;5043779;28;20434;-70
2022/08/23 08:19:51;;;;;;;9.40;6.30;;;22.30;62.60;;;;;;5042032;28;20231;-70
2022/08/23 08:22:17;;;;;;;10.07;6.43;;;22.40;62.60;;;;;;5044346;28;20199;-70
2022/08/23 08:24:43;;;;;;;16.20;6.50;;;22.50;61.60;;;;;;5045604;28;20193;-71
2022/08/23 08:27:09;;;;;;;12.37;6.23;;;22.60;61.50;;;;;;5038635;28;20244;-72
2022/08/23 08:29:35;;;;;;;10.90;6.50;;;22.80;61.30;;;;;;5044461;28;20219;-72
2022/08/23 08:32:00;;;;;;;10.13;6.50;;;22.90;60.90;;;;;;5040293;28;20524;-70
2022/08/23 08:34:26;;;;;;;10.20;6.33;;;23.00;61.30;;;;;;5043319;28;20215;-71
2022/08/23 08:36:57;;;;;;;14.23;6.87;;;23.10;60.60;;;;;;5038618;28;20798;-71
2022/08/23 08:39:26;;;;;;;14.20;6.63;;;23.20;60.90;;;;;;5047975;28;20244;-72
2022/08/23 08:42:03;;;;;;;11.33;5.97;;;23.20;60.70;;;;;;5044085;28;20432;-75
2022/08/23 08:44:53;;;;;;;9.60;5.73;;;23.30;60.00;;;;;;5046115;28;20434;-73
2022/08/23 08:47:27;;;;;;;12.13;6.33;;;23.30;60.00;;;;;;5044684;28;20531;-72
2022/08/23 08:50:14;;;;;;;15.30;6.60;;;23.40;59.70;;;;;;5043337;28;20484;-71
2022/08/23 08:52:46;;;;;;;14.03;7.40;;;23.50;59.30;;;;;;5043387;28;20437;-71
2022/08/23 08:55:19;;;;;;;12.50;5.67;;;23.60;59.20;;;;;;5040299;28;21254;-70
2022/08/23 08:57:49;;;;;;;15.60;6.70;;;23.70;58.70;;;;;;5042618;28;20510;-71
2022/08/23 09:00:27;;;;;;;11.90;7.00;;;23.80;58.40;;;;;;5040446;28;20902;-71
2022/08/23 09:02:57;;;;;;;9.53;5.80;;;23.90;58.00;;;;;;5041403;28;20452;-73
2022/08/23 09:05:33;;;;;;;13.40;6.60;;;24.00;58.00;;;;;;5042310;28;20419;-71
2022/08/23 09:08:11;;;;;;;10.83;6.60;;;24.00;57.80;;;;;;5044282;28;20473;-71
2022/08/23 09:10:54;;;;;;;8.87;5.20;;;24.10;57.30;;;;;;5038989;28;20468;-72
2022/08/23 09:13:31;;;;;;;8.03;5.77;;;24.20;56.80;;;;;;5043378;28;20839;-71
2022/08/23 09:16:02;;;;;;;14.10;5.53;;;24.30;56.80;;;;;;5045758;28;20444;-71
2022/08/23 09:18:32;;;;;;;7.43;5.67;;;24.30;56.60;;;;;;5050488;28;20447;-71
2022/08/23 09:21:00;;;;;;;10.30;5.70;;;24.40;56.40;;;;;;5047553;28;20946;-71
2022/08/23 09:23:34;;;;;;;10.47;5.67;;;24.60;55.70;;;;;;5035867;28;20827;-71
2022/08/23 09:26:03;;;;;;;8.00;5.20;;;24.80;54.90;;;;;;5048034;28;20423;-70
2022/08/23 09:28:32;;;;;;;7.20;4.87;;;25.00;52.80;;;;;;5034521;28;20464;-71
2022/08/23 09:30:58;;;;;;;6.97;4.33;;;25.10;51.20;;;;;;5040959;28;20477;-71
2022/08/23 09:33:36;;;;;;;6.17;4.27;;;25.20;50.10;;;;;;5032236;28;20437;-70
2022/08/23 09:36:21;;;;;;;6.50;4.00;;;25.40;47.90;;;;;;5043306;28;20448;-71
2022/08/23 09:38:56;;;;;;;4.67;4.07;;;25.50;46.30;;;;;;5044008;28;21283;-73
2022/08/23 09:41:44;;;;;;;7.43;3.70;;;25.50;45.50;;;;;;5039932;28;20433;-72
2022/08/23 09:44:12;;;;;;;7.87;3.70;;;25.60;45.40;;;;;;5038414;28;20490;-71
2022/08/23 09:46:41;;;;;;;5.67;3.77;;;25.80;44.30;;;;;;5038633;28;20498;-71
2022/08/23 09:49:28;;;;;;;5.90;3.83;;;25.80;44.50;;;;;;5042674;28;20943;-72
2022/08/23 09:51:59;;;;;;;6.33;3.87;;;25.80;45.00;;;;;;5037305;28;20994;-71
2022/08/23 09:54:29;;;;;;;4.77;3.63;;;25.90;43.80;;;;;;5039542;28;20436;-72
2022/08/23 09:56:59;;;;;;;3.40;2.90;;;25.90;43.50;;;;;;5041400;28;20437;-73
2022/08/23 09:59:25;;;;;;;5.43;3.60;;;26.10;43.40;;;;;;5043060;28;20461;-70
2022/08/23 10:01:56;;;;;;;7.57;3.17;;;26.20;42.60;;;;;;5038372;28;20430;-72
2022/08/23 10:04:42;;;;;;;4.83;3.67;;;26.30;42.80;;;;;;5044937;28;20250;-71
2022/08/23 10:07:40;;;;;;;5.30;3.63;;;26.20;42.70;;;;;;5036276;28;20429;-71
2022/08/23 10:10:31;;;;;;;4.80;3.90;;;26.10;42.30;;;;;;5039962;28;20530;-70
2022/08/23 10:12:57;;;;;;;5.47;3.73;;;26.20;41.90;;;;;;5047595;28;20458;-70
2022/08/23 10:15:42;;;;;;;6.70;3.77;;;26.30;41.90;;;;;;5052262;28;20418;-71
2022/08/23 10:18:33;;;;;;;5.50;3.23;;;26.40;41.40;;;;;;5042259;28;20508;-73
2022/08/23 10:21:05;;;;;;;6.67;3.77;;;26.40;41.00;;;;;;5042218;28;20950;-72
2022/08/23 10:24:02;;;;;;;8.00;3.83;;;26.50;41.10;;;;;;5049869;28;20425;-72
2022/08/23 10:26:32;;;;;;;5.70;4.00;;;26.50;41.40;;;;;;5046321;28;20430;-72
2022/08/23 10:32:04;;;;;;;4.20;3.27;;;26.30;41.90;;;;;;5071483;28;20477;-70
2022/08/23 10:34:42;;;;;;;3.70;3.20;;;26.50;41.90;;;;;;5036939;28;20896;-71
2022/08/23 10:37:44;;;;;;;5.33;3.40;;;26.70;41.10;;;;;;5045757;28;20436;-71
2022/08/23 10:40:47;;;;;;;6.83;4.03;;;26.80;41.20;;;;;;5038676;28;20459;-72
2022/08/23 10:43:19;;;;;;;3.70;3.30;;;26.80;41.10;;;;;;5048595;28;20845;-71
2022/08/23 10:45:46;;;;;;;7.57;4.13;;;27.10;40.30;;;;;;5052731;28;20431;-71
2022/08/23 10:48:30;;;;;;;6.53;3.60;;;27.50;39.00;;;;;;5051078;28;20958;-71
2022/08/23 10:51:16;;;;;;;6.47;3.47;;;27.80;38.00;;;;;;5045935;28;20462;-73
2022/08/23 10:53:52;;;;;;;7.40;4.20;;;28.00;36.60;;;;;;5048524;28;20407;-73
2022/08/23 10:56:19;;;;;;;7.47;3.73;;;28.10;36.60;;;;;;5046715;28;20423;-71
2022/08/23 10:58:51;;;;;;;5.90;3.60;;;28.40;35.90;;;;;;5050715;28;20434;-71
2022/08/23 11:01:30;;;;;;;4.93;3.53;;;28.50;36.00;;;;;;5044703;28;20503;-71
2022/08/23 11:04:06;;;;;;;6.70;3.40;;;28.90;34.90;;;;;;5049584;28;20423;-72
2022/08/23 11:06:34;;;;;;;6.97;3.87;;;29.10;34.40;;;;;;5041886;28;20420;-70
2022/08/23 11:09:05;;;;;;;7.97;4.43;;;29.10;34.30;;;;;;5048271;28;20506;-74
2022/08/23 11:11:55;;;;;;;7.57;3.57;;;28.80;34.70;;;;;;5049382;28;20979;-72
2022/08/23 11:14:35;;;;;;;4.20;3.50;;;28.80;34.50;;;;;;5047398;28;20418;-71
2022/08/23 11:17:06;;;;;;;6.93;3.90;;;28.90;34.40;;;;;;5053010;28;20486;-71
2022/08/23 11:19:51;;;;;;;6.27;3.67;;;28.70;35.10;;;;;;5033945;28;20491;-74
2022/08/23 11:22:19;;;;;;;8.93;4.20;;;27.80;36.40;;;;;;5033145;28;20431;-71
2022/08/23 11:24:53;;;;;;;6.53;4.90;;;27.90;37.20;;;;;;5039916;28;20431;-71
2022/08/23 11:27:30;;;;;;;6.30;4.03;;;28.20;37.10;;;;;;5041379;28;20428;-70
2022/08/23 11:29:56;;;;;;;7.93;4.23;;;28.50;35.70;;;;;;5042566;28;20483;-70
2022/08/23 11:32:32;;;;;;;4.83;4.00;;;28.20;35.60;;;;;;5049260;28;20431;-71
2022/08/23 11:35:03;;;;;;;6.20;4.23;;;28.10;36.70;;;;;;5047067;28;20427;-73
2022/08/23 11:37:48;;;;;;;5.90;4.00;;;28.70;36.40;;;;;;5045881;28;20527;-72
2022/08/23 11:40:14;;;;;;;7.07;4.20;;;29.10;34.90;;;;;;5041377;28;20557;-71
2022/08/23 11:42:46;;;;;;;5.13;3.50;;;29.50;34.90;;;;;;5040824;28;20428;-73
2022/08/23 11:45:32;;;;;;;7.90;4.17;;;29.80;34.30;;;;;;5041770;28;20516;-72
2022/08/23 11:48:35;;;;;;;4.97;3.67;;;29.60;34.10;;;;;;5039660;28;20786;-71
2022/08/23 11:51:12;;;;;;;5.60;4.17;;;30.20;33.20;;;;;;5043680;28;20472;-73
2022/08/23 11:53:52;;;;;;;6.30;4.40;;;30.20;33.20;;;;;;5037840;28;20435;-72
2022/08/23 11:56:46;;;;;;;6.00;3.83;;;29.40;34.40;;;;;;5038076;28;20498;-71
2022/08/23 11:59:33;;;;;;;6.17;3.80;;;29.70;33.90;;;;;;5031934;28;20455;-71
2022/08/23 12:02:34;;;;;;;8.97;3.90;;;29.90;33.70;;;;;;5043133;28;20442;-73
2022/08/23 12:05:40;;;;;;;8.03;3.70;;;30.10;32.90;;;;;;5036079;28;20423;-72
2022/08/23 12:08:05;;;;;;;4.57;3.63;;;30.50;32.30;;;;;;5041299;28;20492;-73
2022/08/23 12:10:40;;;;;;;6.17;4.30;;;30.80;31.70;;;;;;5043855;28;21025;-72
2022/08/23 12:13:18;;;;;;;5.43;4.33;;;30.90;31.50;;;;;;5041105;28;20187;-71
2022/08/23 12:16:08;;;;;;;8.83;4.33;;;30.20;32.00;;;;;;5044343;28;20420;-71
2022/08/23 12:18:47;;;;;;;12.20;4.70;;;29.40;33.50;;;;;;5040050;28;20755;-73
2022/08/23 12:21:38;;;;;;;5.53;4.00;;;29.40;33.70;;;;;;5038095;28;20419;-72
2022/08/23 12:24:24;;;;;;;3.80;3.50;;;30.00;33.20;;;;;;5045746;28;20975;-72
2022/08/23 12:27:01;;;;;;;5.40;3.47;;;30.40;32.70;;;;;;5041389;28;20452;-72
2022/08/23 12:29:51;;;;;;;5.77;4.17;;;30.80;32.10;;;;;;5045085;28;20474;-74
2022/08/23 12:32:42;;;;;;;5.00;4.17;;;30.40;32.50;;;;;;5038212;28;20905;-73
2022/08/23 12:35:41;;;;;;;4.73;3.70;;;30.40;32.30;;;;;;5039319;28;20506;-72
2022/08/23 12:38:44;;;;;;;7.43;4.50;;;30.30;32.50;;;;;;5039368;28;20430;-73
2022/08/23 12:41:23;;;;;;;10.60;4.13;;;30.10;32.90;;;;;;5049406;28;20525;-71
2022/08/23 12:44:19;;;;;;;5.43;3.70;;;29.50;33.60;;;;;;5042790;28;20891;-73
2022/08/23 12:46:47;;;;;;;4.93;3.83;;;29.20;34.00;;;;;;5041112;28;20447;-72
2022/08/23 12:49:31;;;;;;;8.60;4.27;;;29.10;35.10;;;;;;5040755;28;20844;-71
2022/08/23 12:52:00;;;;;;;6.17;4.30;;;30.00;33.60;;;;;;5039748;28;20430;-74
2022/08/23 12:54:45;;;;;;;4.87;3.90;;;30.50;33.10;;;;;;5037659;28;20501;-72
2022/08/23 12:57:18;;;;;;;5.77;4.50;;;30.90;31.50;;;;;;5043842;28;20415;-71
2022/08/23 13:00:20;;;;;;;7.70;4.43;;;30.20;32.80;;;;;;5039468;28;20515;-71
2022/08/23 13:03:09;;;;;;;4.97;3.70;;;30.20;32.90;;;;;;5041329;28;20511;-71
2022/08/23 13:05:45;;;;;;;5.07;3.70;;;30.30;33.10;;;;;;5039096;28;20887;-72
2022/08/23 13:08:25;;;;;;;4.93;3.40;;;30.80;32.50;;;;;;5042322;28;21049;-72
2022/08/23 13:10:51;;;;;;;6.00;4.10;;;31.40;31.70;;;;;;5041255;28;20465;-72
2022/08/23 13:13:22;;;;;;;4.57;4.00;;;31.70;30.70;;;;;;5037177;28;20416;-72
2022/08/23 13:15:53;;;;;;;5.30;4.07;;;31.10;31.90;;;;;;5041492;28;20424;-71
2022/08/23 13:18:39;;;;;;;7.80;4.10;;;31.40;31.50;;;;;;5035564;28;20535;-70